createdAt,value
2018-06-19T00:00:03.007Z,3
2018-06-19T00:05:03.048Z,2
2018-06-19T00:10:03.643Z,2
2018-06-19T00:15:03.231Z,3
2018-06-19T00:20:02.785Z,3
2018-06-19T00:25:03.381Z,3
2018-06-19T00:30:02.946Z,3
2018-06-19T00:35:03.565Z,3
2018-06-19T00:40:03.204Z,3
2018-06-19T00:45:02.740Z,4
2018-06-19T00:50:03.340Z,4
2018-06-19T00:55:02.912Z,4
2018-06-19T01:00:03.510Z,4
2018-06-19T01:05:03.127Z,4
2018-06-19T01:10:02.791Z,8
2018-06-19T01:15:03.345Z,7
2018-06-19T01:20:02.868Z,6
2018-06-19T01:25:03.446Z,4
2018-06-19T01:30:03.043Z,4
2018-06-19T01:35:02.767Z,4
2018-06-19T01:40:03.427Z,6
2018-06-19T01:45:02.990Z,8
2018-06-19T01:50:03.570Z,6
2018-06-19T01:55:03.180Z,5
2018-06-19T02:00:02.761Z,6
2018-06-19T02:05:03.387Z,6
2018-06-19T02:10:02.993Z,6
2018-06-19T02:15:03.591Z,5
2018-06-19T02:20:03.278Z,5
2018-06-19T02:25:02.886Z,5
2018-06-19T02:30:03.448Z,5
2018-06-19T02:35:03.108Z,3
2018-06-19T02:40:02.780Z,8
2018-06-19T02:45:03.316Z,3
2018-06-19T02:50:02.871Z,6
2018-06-19T02:55:03.416Z,8
2018-06-19T03:00:03.354Z,9
2018-06-19T03:05:02.996Z,5
2018-06-19T03:10:02.651Z,6
2018-06-19T03:15:03.273Z,6
2018-06-19T03:20:02.892Z,5
2018-06-19T03:25:03.466Z,5
2018-06-19T03:30:03.564Z,3
2018-06-19T03:35:03.290Z,3
2018-06-19T03:40:02.848Z,4
2018-06-19T03:45:03.467Z,9
2018-06-19T03:50:02.990Z,2
2018-06-19T03:55:03.571Z,7
2018-06-19T04:00:03.091Z,7
2018-06-19T04:05:02.734Z,3
2018-06-19T04:10:03.373Z,4
2018-06-19T04:15:02.921Z,6
2018-06-19T04:20:03.604Z,5
2018-06-19T04:25:03.218Z,4
2018-06-19T04:30:03.161Z,5
2018-06-19T04:35:02.731Z,5
2018-06-19T04:40:03.356Z,7
2018-06-19T04:45:02.943Z,5
2018-06-19T04:50:03.540Z,5
2018-06-19T04:55:03.114Z,5
2018-06-19T05:00:02.688Z,5
2018-06-19T05:05:03.281Z,9
2018-06-19T05:10:02.879Z,9
2018-06-19T05:15:03.467Z,8
2018-06-19T05:20:03.032Z,4
2018-06-19T05:25:03.582Z,7
2018-06-19T05:30:03.168Z,5
2018-06-19T05:35:03.004Z,6
2018-06-19T05:40:02.856Z,7
2018-06-19T05:45:03.546Z,7
2018-06-19T05:50:03.080Z,9
2018-06-19T05:55:02.673Z,7
2018-06-19T06:00:03.430Z,5
2018-06-19T06:05:03.017Z,7
2018-06-19T06:10:02.670Z,4
2018-06-19T06:15:03.345Z,4
2018-06-19T06:20:02.944Z,5
2018-06-19T06:25:03.512Z,6
2018-06-19T06:30:03.178Z,5
2018-06-19T06:35:02.779Z,6
2018-06-19T06:40:03.363Z,7
2018-06-19T06:45:02.895Z,4
2018-06-19T06:50:03.542Z,8
2018-06-19T06:55:03.131Z,5
2018-06-19T07:00:02.905Z,6
2018-06-19T07:05:03.472Z,7
2018-06-19T07:10:03.151Z,5
2018-06-19T07:15:02.877Z,8
2018-06-19T07:20:03.591Z,6
2018-06-19T07:25:03.213Z,5
2018-06-19T07:30:02.968Z,7
2018-06-19T07:35:02.640Z,4
2018-06-19T07:40:03.258Z,7
2018-06-19T07:45:02.847Z,2
2018-06-19T07:50:03.484Z,6
2018-06-19T07:55:03.102Z,6
2018-06-19T08:00:02.813Z,4
2018-06-19T08:05:03.401Z,5
2018-06-19T08:10:03.048Z,5
2018-06-19T08:15:02.669Z,3
2018-06-19T08:20:03.288Z,5
2018-06-19T08:25:02.913Z,6
2018-06-19T08:30:03.585Z,7
2018-06-19T08:35:03.155Z,6
2018-06-19T08:40:02.812Z,5
2018-06-19T08:45:03.360Z,6
2018-06-19T08:50:02.892Z,6
2018-06-19T08:55:03.465Z,4
2018-06-19T09:00:03.076Z,3
2018-06-19T09:05:02.705Z,3
2018-06-19T09:10:03.372Z,5
2018-06-19T09:15:02.887Z,6
2018-06-19T09:20:03.713Z,3
2018-06-19T09:25:03.414Z,5
2018-06-19T09:30:03.037Z,7
2018-06-19T09:35:02.672Z,7
2018-06-19T09:40:03.352Z,7
2018-06-19T09:45:02.955Z,5
2018-06-19T09:50:03.616Z,7
2018-06-19T09:55:03.246Z,4
2018-06-19T10:00:02.830Z,4
2018-06-19T10:05:03.444Z,5
2018-06-19T10:10:03.194Z,5
2018-06-19T10:15:02.850Z,3
2018-06-19T10:20:03.553Z,2
2018-06-19T10:25:03.173Z,6
2018-06-19T10:30:02.761Z,3
2018-06-19T10:35:03.738Z,2
2018-06-19T10:40:02.812Z,3
2018-06-19T10:45:03.356Z,7
2018-06-19T10:50:02.879Z,3
2018-06-19T10:55:03.464Z,5
2018-06-19T11:00:03.106Z,7
2018-06-19T11:05:02.906Z,3
2018-06-19T11:10:02.689Z,5
2018-06-19T11:15:03.302Z,3
2018-06-19T11:20:03.201Z,3
2018-06-19T11:25:03.081Z,6
2018-06-19T11:30:02.674Z,6
2018-06-19T11:35:03.305Z,7
2018-06-19T11:40:02.986Z,6
2018-06-19T11:45:03.558Z,4
2018-06-19T11:50:03.226Z,4
2018-06-19T11:55:02.828Z,3
2018-06-19T12:00:03.466Z,6
2018-06-19T12:05:03.002Z,2
2018-06-19T12:10:02.634Z,8
2018-06-19T12:15:03.193Z,2
2018-06-19T12:20:02.870Z,3
2018-06-19T12:25:03.520Z,3
2018-06-19T12:30:03.125Z,3
2018-06-19T12:35:02.718Z,6
2018-06-19T12:40:03.440Z,7
2018-06-19T12:45:03.144Z,4
2018-06-19T12:50:02.829Z,3
2018-06-19T12:55:03.404Z,6
2018-06-19T13:00:02.929Z,4
2018-06-19T13:05:03.525Z,3
2018-06-19T13:10:03.124Z,2
2018-06-19T13:15:02.732Z,5
2018-06-19T13:20:03.341Z,2
2018-06-19T13:25:02.931Z,2
2018-06-19T13:30:03.590Z,4
2018-06-19T13:35:03.223Z,6
2018-06-19T13:40:02.908Z,5
2018-06-19T13:45:03.512Z,2
2018-06-19T13:50:03.135Z,4
2018-06-19T13:55:02.773Z,3
2018-06-19T14:00:03.347Z,2
2018-06-19T14:05:02.937Z,5
2018-06-19T14:10:02.697Z,2
2018-06-19T14:15:03.317Z,3
2018-06-19T14:20:02.999Z,6
2018-06-19T14:25:02.626Z,4
2018-06-19T14:30:03.221Z,4
2018-06-19T14:35:02.844Z,6
2018-06-19T14:40:03.452Z,5
2018-06-19T14:45:03.267Z,3
2018-06-19T14:50:03.302Z,3
2018-06-19T14:55:02.851Z,3
2018-06-19T15:00:03.539Z,5
2018-06-19T15:05:03.189Z,4
2018-06-19T15:10:02.975Z,3
2018-06-19T15:15:02.804Z,2
2018-06-19T15:20:03.403Z,8
2018-06-19T15:25:03.013Z,5
2018-06-19T15:30:02.635Z,5
2018-06-19T15:35:03.366Z,4
2018-06-19T15:40:02.996Z,5
2018-06-19T15:45:02.683Z,3
2018-06-19T15:50:03.306Z,2
2018-06-19T15:55:02.874Z,3
2018-06-19T16:00:03.502Z,5
2018-06-19T16:05:03.091Z,2
2018-06-19T16:10:02.736Z,3
2018-06-19T16:15:03.391Z,5
2018-06-19T16:20:03.057Z,3
2018-06-19T16:25:03.626Z,6
2018-06-19T16:30:03.215Z,2
2018-06-19T16:40:03.477Z,3
2018-06-19T16:45:03.055Z,4
2018-06-19T16:50:02.706Z,4
2018-06-19T16:55:03.296Z,3
2018-06-19T17:00:03.187Z,2
2018-06-19T17:05:03.024Z,2
2018-06-19T17:10:02.721Z,0
2018-06-19T17:15:03.339Z,3
2018-06-19T17:20:02.899Z,3
2018-06-19T17:25:03.446Z,3
2018-06-19T17:30:03.504Z,2
2018-06-19T17:35:03.314Z,2
2018-06-19T17:40:02.957Z,3
2018-06-19T17:45:03.606Z,2
2018-06-19T17:50:03.201Z,2
2018-06-19T17:55:02.825Z,2
2018-06-19T18:00:03.525Z,1
2018-06-19T18:05:03.122Z,3
2018-06-19T18:10:02.799Z,2
2018-06-19T18:15:03.356Z,1
2018-06-19T18:20:02.931Z,3
2018-06-19T18:25:03.516Z,2
2018-06-19T18:30:03.429Z,2
2018-06-19T18:35:03.111Z,0
2018-06-19T18:40:02.719Z,0
2018-06-19T18:45:03.365Z,0
2018-06-19T18:50:02.966Z,0
2018-06-19T18:55:02.626Z,2
2018-06-19T19:00:03.224Z,0
2018-06-19T19:05:02.891Z,2
2018-06-19T19:10:03.500Z,0
2018-06-19T19:15:03.109Z,0
2018-06-19T19:20:02.716Z,0
2018-06-19T19:25:03.289Z,2
2018-06-19T19:30:02.904Z,0
2018-06-19T19:35:03.574Z,0
2018-06-19T19:40:03.206Z,0
2018-06-19T19:45:02.826Z,0
2018-06-19T19:50:03.404Z,0
2018-06-19T19:55:02.966Z,0
2018-06-19T20:00:03.926Z,0
2018-06-19T20:05:03.628Z,0
2018-06-19T20:10:03.323Z,0
2018-06-19T20:15:02.870Z,0
2018-06-19T20:20:03.480Z,0
2018-06-19T20:25:03.129Z,0
2018-06-19T20:30:02.987Z,0
2018-06-19T20:35:03.598Z,0
2018-06-19T20:40:03.310Z,0
2018-06-19T20:45:02.954Z,0
2018-06-19T20:50:03.534Z,0
2018-06-19T20:55:03.076Z,0
2018-06-19T21:00:02.686Z,0
2018-06-19T21:05:03.342Z,0
2018-06-19T21:10:02.972Z,0
2018-06-19T21:15:03.509Z,0
2018-06-19T21:20:03.095Z,0
2018-06-19T21:25:02.745Z,0
2018-06-19T21:30:03.615Z,0
2018-06-19T21:35:03.510Z,1
2018-06-19T21:40:03.123Z,0
2018-06-19T21:45:02.801Z,0
2018-06-19T21:50:03.454Z,0
2018-06-19T21:55:03.070Z,0
2018-06-19T22:00:02.684Z,0
2018-06-19T22:05:03.547Z,0
2018-06-19T22:10:03.244Z,0
2018-06-19T22:15:02.802Z,0
2018-06-19T22:20:03.470Z,0
2018-06-19T22:25:03.011Z,0
2018-06-19T22:30:02.684Z,0
2018-06-19T22:35:03.369Z,0
2018-06-19T22:40:02.957Z,0
2018-06-19T22:45:03.607Z,0
2018-06-19T22:50:03.190Z,0
2018-06-19T22:55:02.836Z,0
2018-06-19T23:00:03.437Z,0
2018-06-19T23:05:03.343Z,0
2018-06-19T23:10:02.960Z,0
2018-06-19T23:15:03.573Z,0
2018-06-19T23:20:03.203Z,0
2018-06-19T23:25:02.806Z,0
2018-06-19T23:30:03.456Z,0
2018-06-19T23:35:03.159Z,0
2018-06-19T23:40:02.852Z,0
2018-06-19T23:45:03.439Z,0
2018-06-19T23:50:03.057Z,0
2018-06-19T23:55:02.692Z,0
